Huntington Bay, New York
Current Conditions -  °F | °C
As of 3:53 PM on Thursday 18 Dec 2014 (Local Time) from KFRG Reporting Station
Clear Clear  
Wind Chill: 34°   Ceiling: Unl
Heat Index: 41°   Visibility: 10mi
Dew Point: 24°   Wind: 13mph
Humidity: 51%   Direction: 310°NW
Pressure: 29.94"   Gusts: 24mph
Location:  40.8966°N, 73.4362°W
Report Text: KFRG 182053Z 31011G21KT 10SM CLR 05/M04 A2994 RMK AO2 SLP137 T00501044 53001
Loading
Personal Weather Stations






























Interactive Weather Map New forecast layout! Learn more

10-Day Weather Forecast

Advertisements
Track Severe Weather on mobile